sensor_id;sensor_type;location;lat;lon;timestamp;pressure;altitude;pressure_sealevel;temperature;humidity
62725;BME280;49026;52.600;4.694;2023-04-07T00:00:30;101477.28;;;7.24;82.16
62725;BME280;49026;52.600;4.694;2023-04-07T00:02:55;101478.16;;;7.23;81.94
62725;BME280;49026;52.600;4.694;2023-04-07T00:05:23;101483.38;;;7.24;81.18
62725;BME280;49026;52.600;4.694;2023-04-07T00:07:51;101482.53;;;7.22;81.01
62725;BME280;49026;52.600;4.694;2023-04-07T00:10:16;101474.69;;;7.24;80.53
62725;BME280;49026;52.600;4.694;2023-04-07T00:12:41;101479.88;;;7.27;80.66
62725;BME280;49026;52.600;4.694;2023-04-07T00:15:07;101486.81;;;7.28;80.56
62725;BME280;49026;52.600;4.694;2023-04-07T00:17:35;101482.47;;;7.29;79.97
62725;BME280;49026;52.600;4.694;2023-04-07T00:20:00;101473.72;;;7.28;80.62
62725;BME280;49026;52.600;4.694;2023-04-07T00:22:28;101481.53;;;7.31;80.97
62725;BME280;49026;52.600;4.694;2023-04-07T00:24:53;101476.28;;;7.31;80.94
62725;BME280;49026;52.600;4.694;2023-04-07T00:27:19;101478.03;;;7.32;81.14
62725;BME280;49026;52.600;4.694;2023-04-07T00:29:44;101468.44;;;7.33;81.16
62725;BME280;49026;52.600;4.694;2023-04-07T00:32:11;101471.03;;;7.33;81.37
62725;BME280;49026;52.600;4.694;2023-04-07T00:34:36;101474.50;;;7.35;81.96
62725;BME280;49026;52.600;4.694;2023-04-07T00:37:01;101480.63;;;7.34;81.64
62725;BME280;49026;52.600;4.694;2023-04-07T00:39:27;101478.00;;;7.35;80.70
62725;BME280;49026;52.600;4.694;2023-04-07T00:41:52;101472.75;;;7.35;80.77
62725;BME280;49026;52.600;4.694;2023-04-07T00:44:20;101483.19;;;7.38;81.02
62725;BME280;49026;52.600;4.694;2023-04-07T00:46:46;101476.19;;;7.37;81.06
62725;BME280;49026;52.600;4.694;2023-04-07T00:49:12;101475.31;;;7.38;81.80
62725;BME280;49026;52.600;4.694;2023-04-07T00:51:37;101477.03;;;7.39;81.21
62725;BME280;49026;52.600;4.694;2023-04-07T00:54:05;101477.88;;;7.40;81.34
62725;BME280;49026;52.600;4.694;2023-04-07T00:56:31;101479.66;;;7.39;81.77
62725;BME280;49026;52.600;4.694;2023-04-07T00:58:58;101477.88;;;7.41;82.31
62725;BME280;49026;52.600;4.694;2023-04-07T01:01:27;101480.50;;;7.40;82.11
62725;BME280;49026;52.600;4.694;2023-04-07T01:04:03;101471.81;;;7.39;81.90
62725;BME280;49026;52.600;4.694;2023-04-07T01:06:33;101470.09;;;7.38;81.92
62725;BME280;49026;52.600;4.694;2023-04-07T01:09:34;101483.19;;;7.38;81.22
62725;BME280;49026;52.600;4.694;2023-04-07T01:12:14;101469.19;;;7.39;82.22
62725;BME280;49026;52.600;4.694;2023-04-07T01:14:46;101470.97;;;7.37;81.78
62725;BME280;49026;52.600;4.694;2023-04-07T01:17:16;101481.44;;;7.37;81.88
62725;BME280;49026;52.600;4.694;2023-04-07T01:19:46;101483.19;;;7.38;81.50
62725;BME280;49026;52.600;4.694;2023-04-07T01:22:15;101483.22;;;7.35;82.36
62725;BME280;49026;52.600;4.694;2023-04-07T01:25:05;101477.09;;;7.36;81.71
62725;BME280;49026;52.600;4.694;2023-04-07T01:28:04;101484.94;;;7.36;81.51
62725;BME280;49026;52.600;4.694;2023-04-07T01:30:37;101486.66;;;7.37;81.34
62725;BME280;49026;52.600;4.694;2023-04-07T01:33:04;101491.03;;;7.37;81.18
62725;BME280;49026;52.600;4.694;2023-04-07T01:35:33;101493.63;;;7.38;81.53
62725;BME280;49026;52.600;4.694;2023-04-07T01:38:01;101481.44;;;7.37;81.44
62725;BME280;49026;52.600;4.694;2023-04-07T01:40:27;101481.44;;;7.37;81.07
62725;BME280;49026;52.600;4.694;2023-04-07T01:42:55;101477.94;;;7.38;80.52
62725;BME280;49026;52.600;4.694;2023-04-07T01:45:21;101485.72;;;7.40;81.98
62725;BME280;49026;52.600;4.694;2023-04-07T01:47:48;101478.81;;;7.37;81.74
62725;BME280;49026;52.600;4.694;2023-04-07T01:50:15;101487.53;;;7.36;81.97
62725;BME280;49026;52.600;4.694;2023-04-07T01:52:41;101495.38;;;7.36;82.15
62725;BME280;49026;52.600;4.694;2023-04-07T01:55:07;101488.44;;;7.35;82.03
62725;BME280;49026;52.600;4.694;2023-04-07T01:57:38;101486.72;;;7.34;81.95
62725;BME280;49026;52.600;4.694;2023-04-07T02:00:04;101495.44;;;7.33;81.23
62725;BME280;49026;52.600;4.694;2023-04-07T02:02:40;101490.25;;;7.32;82.20
62725;BME280;49026;52.600;4.694;2023-04-07T02:05:14;101494.63;;;7.30;82.23
62725;BME280;49026;52.600;4.694;2023-04-07T02:07:53;101489.38;;;7.30;83.06
62725;BME280;49026;52.600;4.694;2023-04-07T02:10:21;101494.66;;;7.27;82.90
62725;BME280;49026;52.600;4.694;2023-04-07T02:12:48;101495.59;;;7.24;82.76
62725;BME280;49026;52.600;4.694;2023-04-07T02:15:16;101493.91;;;7.20;82.86
62725;BME280;49026;52.600;4.694;2023-04-07T02:17:46;101492.22;;;7.16;82.61
62725;BME280;49026;52.600;4.694;2023-04-07T02:20:14;101487.91;;;7.13;82.71
62725;BME280;49026;52.600;4.694;2023-04-07T02:22:40;101497.50;;;7.13;82.02
62725;BME280;49026;52.600;4.694;2023-04-07T02:27:45;101506.25;;;7.12;82.54
62725;BME280;49026;52.600;4.694;2023-04-07T02:30:10;101500.13;;;7.11;82.74
62725;BME280;49026;52.600;4.694;2023-04-07T02:32:38;101503.69;;;7.09;82.55
62725;BME280;49026;52.600;4.694;2023-04-07T02:35:03;101504.56;;;7.08;82.69
62725;BME280;49026;52.600;4.694;2023-04-07T02:37:29;101498.50;;;7.05;82.86
62725;BME280;49026;52.600;4.694;2023-04-07T02:39:54;101505.50;;;7.03;82.73
62725;BME280;49026;52.600;4.694;2023-04-07T02:42:20;101491.53;;;7.03;82.47
62725;BME280;49026;52.600;4.694;2023-04-07T02:44:47;101498.53;;;7.02;82.25
62725;BME280;49026;52.600;4.694;2023-04-07T02:47:15;101502.03;;;7.00;82.41
62725;BME280;49026;52.600;4.694;2023-04-07T02:49:40;101509.94;;;6.98;81.98
62725;BME280;49026;52.600;4.694;2023-04-07T02:52:06;101503.84;;;6.95;81.75
62725;BME280;49026;52.600;4.694;2023-04-07T02:54:34;101510.88;;;6.93;81.64
62725;BME280;49026;52.600;4.694;2023-04-07T02:57:03;101514.38;;;6.92;81.23
62725;BME280;49026;52.600;4.694;2023-04-07T02:59:28;101510.91;;;6.90;81.75
62725;BME280;49026;52.600;4.694;2023-04-07T03:01:56;101515.28;;;6.89;81.91
62725;BME280;49026;52.600;4.694;2023-04-07T03:04:21;101508.31;;;6.88;81.78
62725;BME280;49026;52.600;4.694;2023-04-07T03:06:46;101507.44;;;6.88;81.82
62725;BME280;49026;52.600;4.694;2023-04-07T03:09:11;101513.53;;;6.88;81.89
62725;BME280;49026;52.600;4.694;2023-04-07T03:11:37;101511.81;;;6.87;82.34
62725;BME280;49026;52.600;4.694;2023-04-07T03:14:02;101517.94;;;6.84;82.18
62725;BME280;49026;52.600;4.694;2023-04-07T03:16:30;101505.75;;;6.85;82.11
62725;BME280;49026;52.600;4.694;2023-04-07T03:18:55;101511.81;;;6.87;81.98
62725;BME280;49026;52.600;4.694;2023-04-07T03:21:25;101509.22;;;6.87;82.23
62725;BME280;49026;52.600;4.694;2023-04-07T03:23:50;101505.72;;;6.86;82.07
62725;BME280;49026;52.600;4.694;2023-04-07T03:26:15;101512.69;;;6.86;82.10
62725;BME280;49026;52.600;4.694;2023-04-07T03:28:41;101511.88;;;6.84;82.16
62725;BME280;49026;52.600;4.694;2023-04-07T03:31:08;101511.00;;;6.83;82.24
62725;BME280;49026;52.600;4.694;2023-04-07T03:33:34;101508.41;;;6.82;81.82
62725;BME280;49026;52.600;4.694;2023-04-07T03:35:59;101509.28;;;6.82;82.19
62725;BME280;49026;52.600;4.694;2023-04-07T03:38:25;101516.22;;;6.83;81.81
62725;BME280;49026;52.600;4.694;2023-04-07T03:40:50;101513.63;;;6.82;82.18
62725;BME280;49026;52.600;4.694;2023-04-07T03:43:15;101511.03;;;6.82;81.88
62725;BME280;49026;52.600;4.694;2023-04-07T03:45:41;101508.41;;;6.83;82.37
62725;BME280;49026;52.600;4.694;2023-04-07T03:48:07;101509.28;;;6.82;82.80
62725;BME280;49026;52.600;4.694;2023-04-07T03:50:45;101507.53;;;6.81;83.11
62725;BME280;49026;52.600;4.694;2023-04-07T03:53:10;101511.91;;;6.81;82.66
62725;BME280;49026;52.600;4.694;2023-04-07T03:55:38;101508.44;;;6.79;83.09
62725;BME280;49026;52.600;4.694;2023-04-07T03:58:03;101506.69;;;6.79;83.23
62725;BME280;49026;52.600;4.694;2023-04-07T04:00:29;101518.91;;;6.79;82.57
62725;BME280;49026;52.600;4.694;2023-04-07T04:02:57;101518.91;;;6.79;83.14
62725;BME280;49026;52.600;4.694;2023-04-07T04:05:22;101527.56;;;6.81;82.55
62725;BME280;49026;52.600;4.694;2023-04-07T04:07:47;101520.56;;;6.83;82.67
62725;BME280;49026;52.600;4.694;2023-04-07T04:10:15;101528.41;;;6.83;82.92
62725;BME280;49026;52.600;4.694;2023-04-07T04:12:40;101523.19;;;6.83;82.78
62725;BME280;49026;52.600;4.694;2023-04-07T04:15:06;101525.78;;;6.83;83.22
62725;BME280;49026;52.600;4.694;2023-04-07T04:17:32;101524.09;;;6.82;83.21
62725;BME280;49026;52.600;4.694;2023-04-07T04:19:57;101528.41;;;6.83;83.40
62725;BME280;49026;52.600;4.694;2023-04-07T04:22:22;101518.88;;;6.82;82.56
62725;BME280;49026;52.600;4.694;2023-04-07T04:24:47;101526.69;;;6.83;83.45
62725;BME280;49026;52.600;4.694;2023-04-07T04:27:15;101525.78;;;6.83;83.03
62725;BME280;49026;52.600;4.694;2023-04-07T04:29:40;101518.81;;;6.85;83.21
62725;BME280;49026;52.600;4.694;2023-04-07T04:32:06;101527.53;;;6.84;82.91
62725;BME280;49026;52.600;4.694;2023-04-07T04:34:31;101534.50;;;6.85;83.30
62725;BME280;49026;52.600;4.694;2023-04-07T04:36:56;101534.50;;;6.85;83.30
62725;BME280;49026;52.600;4.694;2023-04-07T04:39:24;101533.59;;;6.86;83.16
62725;BME280;49026;52.600;4.694;2023-04-07T04:41:49;101527.50;;;6.85;83.59
62725;BME280;49026;52.600;4.694;2023-04-07T04:44:16;101532.72;;;6.87;83.49
62725;BME280;49026;52.600;4.694;2023-04-07T04:46:42;101533.59;;;6.86;83.25
62725;BME280;49026;52.600;4.694;2023-04-07T04:49:07;101537.06;;;6.86;83.26
62725;BME280;49026;52.600;4.694;2023-04-07T04:51:32;101537.94;;;6.89;82.83
62725;BME280;49026;52.600;4.694;2023-04-07T04:53:57;101551.00;;;6.89;83.77
62725;BME280;49026;52.600;4.694;2023-04-07T04:56:28;101543.19;;;6.87;83.56
62725;BME280;49026;52.600;4.694;2023-04-07T04:58:53;101546.66;;;6.88;83.36
62725;BME280;49026;52.600;4.694;2023-04-07T05:01:18;101549.22;;;6.89;83.43
62725;BME280;49026;52.600;4.694;2023-04-07T05:03:44;101550.97;;;6.90;83.10
62725;BME280;49026;52.600;4.694;2023-04-07T05:06:09;101548.38;;;6.90;83.56
62725;BME280;49026;52.600;4.694;2023-04-07T05:08:37;101558.81;;;6.90;82.97
62725;BME280;49026;52.600;4.694;2023-04-07T05:11:02;101556.19;;;6.92;83.38
62725;BME280;49026;52.600;4.694;2023-04-07T05:13:28;101561.41;;;6.92;83.33
62725;BME280;49026;52.600;4.694;2023-04-07T05:15:57;101557.06;;;6.91;83.79
62725;BME280;49026;52.600;4.694;2023-04-07T05:18:25;101563.13;;;6.91;84.06
62725;BME280;49026;52.600;4.694;2023-04-07T05:20:50;101563.16;;;6.90;83.71
62725;BME280;49026;52.600;4.694;2023-04-07T05:23:15;101568.41;;;6.88;84.07
62725;BME280;49026;52.600;4.694;2023-04-07T05:25:41;101564.06;;;6.87;83.38
62725;BME280;49026;52.600;4.694;2023-04-07T05:28:06;101559.72;;;6.86;83.30
62725;BME280;49026;52.600;4.694;2023-04-07T05:30:31;101561.50;;;6.84;83.91
62725;BME280;49026;52.600;4.694;2023-04-07T05:32:59;101563.25;;;6.83;83.33
62725;BME280;49026;52.600;4.694;2023-04-07T05:35:24;101577.16;;;6.84;82.95
62725;BME280;49026;52.600;4.694;2023-04-07T05:37:50;101551.91;;;6.83;84.05
62725;BME280;49026;52.600;4.694;2023-04-07T05:40:17;101578.03;;;6.83;84.13
62725;BME280;49026;52.600;4.694;2023-04-07T05:42:43;101578.94;;;6.82;83.85
62725;BME280;49026;52.600;4.694;2023-04-07T05:45:09;101583.28;;;6.83;83.26
62725;BME280;49026;52.600;4.694;2023-04-07T05:47:34;101585.00;;;6.84;83.50
62725;BME280;49026;52.600;4.694;2023-04-07T05:50:01;101584.13;;;6.85;83.10
62725;BME280;49026;52.600;4.694;2023-04-07T05:52:27;101581.47;;;6.88;83.84
62725;BME280;49026;52.600;4.694;2023-04-07T05:54:52;101579.72;;;6.90;83.72
62725;BME280;49026;52.600;4.694;2023-04-07T05:57:17;101580.56;;;6.92;83.63
62725;BME280;49026;52.600;4.694;2023-04-07T05:59:43;101580.53;;;6.94;83.61
62725;BME280;49026;52.600;4.694;2023-04-07T06:02:08;101583.13;;;6.95;83.77
62725;BME280;49026;52.600;4.694;2023-04-07T06:04:33;101583.13;;;6.97;83.79
62725;BME280;49026;52.600;4.694;2023-04-07T06:07:00;101591.81;;;6.97;84.09
62725;BME280;49026;52.600;4.694;2023-04-07T06:09:25;101597.88;;;6.98;84.09
62725;BME280;49026;52.600;4.694;2023-04-07T06:11:53;101602.25;;;6.97;84.00
62725;BME280;49026;52.600;4.694;2023-04-07T06:14:18;101597.03;;;6.97;84.06
62725;BME280;49026;52.600;4.694;2023-04-07T06:16:43;101602.25;;;6.97;83.62
62725;BME280;49026;52.600;4.694;2023-04-07T06:19:11;101607.47;;;6.97;83.90
62725;BME280;49026;52.600;4.694;2023-04-07T06:21:37;101605.72;;;6.98;83.99
62725;BME280;49026;52.600;4.694;2023-04-07T06:24:06;101606.56;;;7.00;84.00
62725;BME280;49026;52.600;4.694;2023-04-07T06:26:31;101625.75;;;7.00;83.62
62725;BME280;49026;52.600;4.694;2023-04-07T06:28:57;101610.91;;;7.02;83.57
62725;BME280;49026;52.600;4.694;2023-04-07T06:31:23;101618.72;;;7.05;83.49
62725;BME280;49026;52.600;4.694;2023-04-07T06:33:48;101619.53;;;7.08;83.81
62725;BME280;49026;52.600;4.694;2023-04-07T06:36:16;101626.50;;;7.09;83.80
62725;BME280;49026;52.600;4.694;2023-04-07T06:38:42;101625.59;;;7.10;84.02
62725;BME280;49026;52.600;4.694;2023-04-07T06:41:10;101629.94;;;7.14;84.03
62725;BME280;49026;52.600;4.694;2023-04-07T06:43:41;101633.38;;;7.16;83.96
62725;BME280;49026;52.600;4.694;2023-04-07T06:46:06;101630.72;;;7.19;84.25
62725;BME280;49026;52.600;4.694;2023-04-07T06:48:31;101632.41;;;7.21;84.07
62725;BME280;49026;52.600;4.694;2023-04-07T06:50:59;101628.94;;;7.22;83.60
62725;BME280;49026;52.600;4.694;2023-04-07T06:53:29;101628.06;;;7.23;83.98
62725;BME280;49026;52.600;4.694;2023-04-07T06:56:09;101640.22;;;7.24;84.41
62725;BME280;49026;52.600;4.694;2023-04-07T06:58:38;101641.09;;;7.25;83.40
62725;BME280;49026;52.600;4.694;2023-04-07T07:01:03;101646.28;;;7.27;83.81
62725;BME280;49026;52.600;4.694;2023-04-07T07:03:30;101646.28;;;7.28;83.65
62725;BME280;49026;52.600;4.694;2023-04-07T07:05:56;101647.16;;;7.29;83.67
62725;BME280;49026;52.600;4.694;2023-04-07T07:08:22;101649.75;;;7.30;84.00
62725;BME280;49026;52.600;4.694;2023-04-07T07:10:47;101648.84;;;7.31;84.68
62725;BME280;49026;52.600;4.694;2023-04-07T07:13:13;101654.91;;;7.35;83.76
62725;BME280;49026;52.600;4.694;2023-04-07T07:15:41;101656.63;;;7.37;84.28
62725;BME280;49026;52.600;4.694;2023-04-07T07:18:06;101660.06;;;7.41;83.87
62725;BME280;49026;52.600;4.694;2023-04-07T07:20:31;101660.88;;;7.45;83.49
62725;BME280;49026;52.600;4.694;2023-04-07T07:22:59;101657.38;;;7.46;83.35
62725;BME280;49026;52.600;4.694;2023-04-07T07:25:24;101661.69;;;7.48;83.57
62725;BME280;49026;52.600;4.694;2023-04-07T07:27:53;101655.56;;;7.51;83.74
62725;BME280;49026;52.600;4.694;2023-04-07T07:30:22;101664.19;;;7.57;83.35
62725;BME280;49026;52.600;4.694;2023-04-07T07:32:48;101664.13;;;7.62;83.98
62725;BME280;49026;52.600;4.694;2023-04-07T07:35:14;101674.47;;;7.68;83.40
62725;BME280;49026;52.600;4.694;2023-04-07T07:37:40;101670.88;;;7.77;83.79
62725;BME280;49026;52.600;4.694;2023-04-07T07:40:06;101676.03;;;7.82;84.16
62725;BME280;49026;52.600;4.694;2023-04-07T07:42:34;101678.56;;;7.88;83.41
62725;BME280;49026;52.600;4.694;2023-04-07T07:44:59;101682.09;;;7.85;83.32
62725;BME280;49026;52.600;4.694;2023-04-07T07:47:24;101686.41;;;7.86;83.89
62725;BME280;49026;52.600;4.694;2023-04-07T07:49:52;101686.34;;;7.91;84.14
62725;BME280;49026;52.600;4.694;2023-04-07T07:52:18;101683.69;;;7.94;83.42
62725;BME280;49026;52.600;4.694;2023-04-07T07:54:44;101695.03;;;7.93;84.06
62725;BME280;49026;52.600;4.694;2023-04-07T07:57:10;101688.94;;;7.94;84.13
62725;BME280;49026;52.600;4.694;2023-04-07T07:59:35;101695.84;;;7.96;83.76
62725;BME280;49026;52.600;4.694;2023-04-07T08:02:00;101682.75;;;7.98;83.92
62725;BME280;49026;52.600;4.694;2023-04-07T08:04:33;101691.53;;;7.95;83.64
62725;BME280;49026;52.600;4.694;2023-04-07T08:06:59;101701.06;;;8.00;83.96
62725;BME280;49026;52.600;4.694;2023-04-07T08:09:24;101703.56;;;8.07;84.01
62725;BME280;49026;52.600;4.694;2023-04-07T08:11:50;101701.81;;;8.06;83.70
62725;BME280;49026;52.600;4.694;2023-04-07T08:14:18;101712.25;;;8.09;83.31
62725;BME280;49026;52.600;4.694;2023-04-07T08:16:44;101702.59;;;8.13;83.90
62725;BME280;49026;52.600;4.694;2023-04-07T08:19:10;101713.91;;;8.13;84.12
62725;BME280;49026;52.600;4.694;2023-04-07T08:21:36;101712.16;;;8.15;83.90
62725;BME280;49026;52.600;4.694;2023-04-07T08:24:01;101711.25;;;8.16;84.09
62725;BME280;49026;52.600;4.694;2023-04-07T08:26:29;101712.22;;;8.11;83.87
62725;BME280;49026;52.600;4.694;2023-04-07T08:28:57;101720.06;;;8.11;84.43
62725;BME280;49026;52.600;4.694;2023-04-07T08:31:23;101713.91;;;8.13;83.40
62725;BME280;49026;52.600;4.694;2023-04-07T08:33:51;101720.94;;;8.11;83.32
62725;BME280;49026;52.600;4.694;2023-04-07T08:36:25;101721.81;;;8.12;83.60
62725;BME280;49026;52.600;4.694;2023-04-07T08:38:52;101723.44;;;8.19;83.66
62725;BME280;49026;52.600;4.694;2023-04-07T08:41:23;101719.84;;;8.25;83.73
62725;BME280;49026;52.600;4.694;2023-04-07T08:43:55;101727.66;;;8.28;83.58
62725;BME280;49026;52.600;4.694;2023-04-07T08:46:24;101725.00;;;8.29;83.51
62725;BME280;49026;52.600;4.694;2023-04-07T08:48:51;101736.34;;;8.30;83.58
62725;BME280;49026;52.600;4.694;2023-04-07T08:51:22;101739.91;;;8.26;83.13
62725;BME280;49026;52.600;4.694;2023-04-07T08:53:52;101738.25;;;8.20;83.35
62725;BME280;49026;52.600;4.694;2023-04-07T08:56:19;101746.16;;;8.19;83.28
62725;BME280;49026;52.600;4.694;2023-04-07T08:58:48;101749.63;;;8.18;83.26
62725;BME280;49026;52.600;4.694;2023-04-07T09:01:13;101750.56;;;8.13;83.28
62725;BME280;49026;52.600;4.694;2023-04-07T09:03:41;101748.84;;;8.12;83.88
62725;BME280;49026;52.600;4.694;2023-04-07T09:06:08;101751.50;;;8.11;83.40
62725;BME280;49026;52.600;4.694;2023-04-07T09:08:35;101759.56;;;7.97;83.36
62725;BME280;49026;52.600;4.694;2023-04-07T09:11:00;101764.97;;;7.83;83.31
62725;BME280;49026;52.600;4.694;2023-04-07T09:13:27;101758.16;;;7.71;83.70
62725;BME280;49026;52.600;4.694;2023-04-07T09:15:53;101763.50;;;7.64;83.52
62725;BME280;49026;52.600;4.694;2023-04-07T09:18:18;101760.88;;;7.64;83.34
62725;BME280;49026;52.600;4.694;2023-04-07T09:20:54;101752.91;;;7.71;82.97
62725;BME280;49026;52.600;4.694;2023-04-07T09:23:27;101762.50;;;7.74;82.87
62725;BME280;49026;52.600;4.694;2023-04-07T09:25:59;101764.28;;;7.72;83.34
62725;BME280;49026;52.600;4.694;2023-04-07T09:28:37;101771.25;;;7.70;83.21
62725;BME280;49026;52.600;4.694;2023-04-07T09:31:02;101769.53;;;7.70;83.35
62725;BME280;49026;52.600;4.694;2023-04-07T09:33:28;101756.47;;;7.67;84.10
62725;BME280;49026;52.600;4.694;2023-04-07T09:35:56;101769.63;;;7.61;84.63
62725;BME280;49026;52.600;4.694;2023-04-07T09:38:22;101767.00;;;7.63;84.29
62725;BME280;49026;52.600;4.694;2023-04-07T09:41:04;101766.97;;;7.64;84.84
62725;BME280;49026;52.600;4.694;2023-04-07T09:43:29;101765.19;;;7.66;84.45
62725;BME280;49026;52.600;4.694;2023-04-07T09:46:39;101775.69;;;7.65;84.90
62725;BME280;49026;52.600;4.694;2023-04-07T09:49:03;101768.78;;;7.59;85.02
62725;BME280;49026;52.600;4.694;2023-04-07T09:51:29;101774.88;;;7.59;84.29
62725;BME280;49026;52.600;4.694;2023-04-07T09:53:57;101776.59;;;7.62;84.66
62725;BME280;49026;52.600;4.694;2023-04-07T09:56:22;101776.59;;;7.64;84.35
62725;BME280;49026;52.600;4.694;2023-04-07T09:58:50;101776.47;;;7.71;84.57
62725;BME280;49026;52.600;4.694;2023-04-07T10:01:16;101779.84;;;7.79;84.84
62725;BME280;49026;52.600;4.694;2023-04-07T10:03:46;101782.50;;;7.76;84.47
62725;BME280;49026;52.600;4.694;2023-04-07T10:06:13;101784.22;;;7.81;84.97
62725;BME280;49026;52.600;4.694;2023-04-07T10:08:42;101778.97;;;7.81;84.39
62725;BME280;49026;52.600;4.694;2023-04-07T10:11:10;101787.66;;;7.83;84.46
62725;BME280;49026;52.600;4.694;2023-04-07T10:13:36;101790.28;;;7.81;84.49
62725;BME280;49026;52.600;4.694;2023-04-07T10:16:09;101787.59;;;7.89;84.61
62725;BME280;49026;52.600;4.694;2023-04-07T10:18:35;101787.47;;;7.95;84.50
62725;BME280;49026;52.600;4.694;2023-04-07T10:21:03;101794.50;;;7.91;84.95
62725;BME280;49026;52.600;4.694;2023-04-07T10:23:39;101795.53;;;7.81;84.88
62725;BME280;49026;52.600;4.694;2023-04-07T10:26:07;101791.25;;;7.75;85.19
62725;BME280;49026;52.600;4.694;2023-04-07T10:28:37;101784.34;;;7.68;85.11
62725;BME280;49026;52.600;4.694;2023-04-07T10:31:09;101798.38;;;7.64;84.79
62725;BME280;49026;52.600;4.694;2023-04-07T10:33:48;101794.03;;;7.60;85.02
62725;BME280;49026;52.600;4.694;2023-04-07T10:36:17;101796.72;;;7.57;84.97
62725;BME280;49026;52.600;4.694;2023-04-07T10:44:08;101800.03;;;7.70;85.27
62725;BME280;49026;52.600;4.694;2023-04-07T10:49:14;101802.53;;;7.79;85.09
62725;BME280;49026;52.600;4.694;2023-04-07T10:54:38;101814.72;;;7.80;85.48
62725;BME280;49026;52.600;4.694;2023-04-07T10:57:11;101811.28;;;7.75;85.67
62725;BME280;49026;52.600;4.694;2023-04-07T11:02:37;101808.75;;;7.72;85.58
62725;BME280;49026;52.600;4.694;2023-04-07T11:05:04;101818.25;;;7.79;85.78
62725;BME280;49026;52.600;4.694;2023-04-07T11:07:44;101814.69;;;7.83;85.68
62725;BME280;49026;52.600;4.694;2023-04-07T11:10:11;101823.41;;;7.84;85.95
62725;BME280;49026;52.600;4.694;2023-04-07T11:12:39;101825.16;;;7.82;86.02
62725;BME280;49026;52.600;4.694;2023-04-07T11:15:23;101817.25;;;7.88;86.44
62725;BME280;49026;52.600;4.694;2023-04-07T11:18:11;101830.09;;;8.06;86.73
62725;BME280;49026;52.600;4.694;2023-04-07T11:20:40;101829.09;;;8.13;86.39
62725;BME280;49026;52.600;4.694;2023-04-07T11:23:06;101821.22;;;8.15;86.07
62725;BME280;49026;52.600;4.694;2023-04-07T11:25:31;101829.97;;;8.15;86.90
62725;BME280;49026;52.600;4.694;2023-04-07T11:27:58;101834.25;;;8.20;86.45
62725;BME280;49026;52.600;4.694;2023-04-07T11:30:23;101834.16;;;8.27;86.44
62725;BME280;49026;52.600;4.694;2023-04-07T11:32:58;101823.63;;;8.32;86.69
62725;BME280;49026;52.600;4.694;2023-04-07T11:35:26;101836.66;;;8.33;87.04
62725;BME280;49026;52.600;4.694;2023-04-07T11:38:01;101836.59;;;8.40;87.35
62725;BME280;49026;52.600;4.694;2023-04-07T11:40:35;101830.56;;;8.33;86.78
62725;BME280;49026;52.600;4.694;2023-04-07T11:43:01;101842.84;;;8.31;87.24
62725;BME280;49026;52.600;4.694;2023-04-07T11:45:27;101839.22;;;8.38;87.11
62725;BME280;49026;52.600;4.694;2023-04-07T11:47:54;101837.44;;;8.40;86.82
62725;BME280;49026;52.600;4.694;2023-04-07T11:50:41;101843.56;;;8.44;87.12
62725;BME280;49026;52.600;4.694;2023-04-07T11:53:07;101848.81;;;8.39;87.03
62725;BME280;49026;52.600;4.694;2023-04-07T11:55:33;101846.16;;;8.42;87.34
62725;BME280;49026;52.600;4.694;2023-04-07T11:58:07;101837.38;;;8.46;86.95
62725;BME280;49026;52.600;4.694;2023-04-07T12:00:52;101843.53;;;8.45;87.07
62725;BME280;49026;52.600;4.694;2023-04-07T12:03:19;101846.94;;;8.50;86.93
62725;BME280;49026;52.600;4.694;2023-04-07T12:05:45;101846.88;;;8.53;87.10
62725;BME280;49026;52.600;4.694;2023-04-07T12:08:10;101850.22;;;8.63;87.46
62725;BME280;49026;52.600;4.694;2023-04-07T12:10:38;101845.88;;;8.64;86.85
62725;BME280;49026;52.600;4.694;2023-04-07T12:13:08;101863.28;;;8.65;87.09
62725;BME280;49026;52.600;4.694;2023-04-07T12:15:34;101859.84;;;8.63;87.23
62725;BME280;49026;52.600;4.694;2023-04-07T12:18:03;101869.53;;;8.58;86.65
62725;BME280;49026;52.600;4.694;2023-04-07T12:20:31;101867.94;;;8.47;86.98
62725;BME280;49026;52.600;4.694;2023-04-07T12:22:57;101878.47;;;8.41;87.46
62725;BME280;49026;52.600;4.694;2023-04-07T12:25:25;101875.84;;;8.44;87.08
62725;BME280;49026;52.600;4.694;2023-04-07T12:27:51;101879.31;;;8.45;86.69
62725;BME280;49026;52.600;4.694;2023-04-07T12:30:17;101871.47;;;8.43;87.13
62725;BME280;49026;52.600;4.694;2023-04-07T12:32:45;101880.16;;;8.47;87.16
62725;BME280;49026;52.600;4.694;2023-04-07T12:35:11;101876.72;;;8.43;87.05
62725;BME280;49026;52.600;4.694;2023-04-07T12:37:36;101875.00;;;8.39;86.80
62725;BME280;49026;52.600;4.694;2023-04-07T12:40:02;101882.06;;;8.35;86.88
62725;BME280;49026;52.600;4.694;2023-04-07T12:42:28;101881.13;;;8.38;86.91
62725;BME280;49026;52.600;4.694;2023-04-07T12:44:53;101888.06;;;8.45;86.97
62725;BME280;49026;52.600;4.694;2023-04-07T12:47:19;101883.34;;;8.69;86.56
62725;BME280;49026;52.600;4.694;2023-04-07T12:49:44;101882.03;;;8.95;86.70
62725;BME280;49026;52.600;4.694;2023-04-07T12:52:10;101881.81;;;9.07;85.89
62725;BME280;49026;52.600;4.694;2023-04-07T12:54:36;101886.28;;;9.02;86.23
62725;BME280;49026;52.600;4.694;2023-04-07T12:57:04;101887.16;;;9.02;86.38
62725;BME280;49026;52.600;4.694;2023-04-07T12:59:29;101888.91;;;9.02;86.44
62725;BME280;49026;52.600;4.694;2023-04-07T13:01:55;101894.09;;;9.05;86.72
62725;BME280;49026;52.600;4.694;2023-04-07T13:04:20;101899.16;;;9.17;86.38
62725;BME280;49026;52.600;4.694;2023-04-07T13:06:46;101896.44;;;9.22;86.40
62725;BME280;49026;52.600;4.694;2023-04-07T13:09:11;101897.50;;;9.10;85.98
62725;BME280;49026;52.600;4.694;2023-04-07T13:11:36;101897.66;;;9.02;86.26
62725;BME280;49026;52.600;4.694;2023-04-07T13:14:02;101900.25;;;9.04;86.72
62725;BME280;49026;52.600;4.694;2023-04-07T13:16:27;101900.94;;;9.14;86.69
62725;BME280;49026;52.600;4.694;2023-04-07T13:18:53;101889.41;;;9.24;86.44